sensor_id;sensor_type;location;lat;lon;timestamp;P1;durP1;ratioP1;P2;durP2;ratioP2
61739;SDS011;47645;45.288;12.038;2023-03-15T00:01:53;5.4;;;3.3;;
61739;SDS011;47645;45.288;12.038;2023-03-15T00:11:54;7.8;;;3.7;;
61739;SDS011;47645;45.288;12.038;2023-03-15T00:21:54;4.9;;;3.3;;
61739;SDS011;47645;45.288;12.038;2023-03-15T00:31:55;4.1;;;2.1;;
61739;SDS011;47645;45.288;12.038;2023-03-15T00:41:56;3.0;;;2.2;;
61739;SDS011;47645;45.288;12.038;2023-03-15T00:51:56;4.6;;;2.5;;
61739;SDS011;47645;45.288;12.038;2023-03-15T01:01:57;5.5;;;2.7;;
61739;SDS011;47645;45.288;12.038;2023-03-15T01:11:58;7.3;;;3.2;;
61739;SDS011;47645;45.288;12.038;2023-03-15T01:21:58;7.6;;;3.4;;
61739;SDS011;47645;45.288;12.038;2023-03-15T01:31:59;5.1;;;3.2;;
61739;SDS011;47645;45.288;12.038;2023-03-15T01:42:01;5.6;;;3.1;;
61739;SDS011;47645;45.288;12.038;2023-03-15T01:52:01;4.4;;;2.8;;
61739;SDS011;47645;45.288;12.038;2023-03-15T02:02:01;5.9;;;3.0;;
61739;SDS011;47645;45.288;12.038;2023-03-15T02:12:01;8.5;;;5.1;;
61739;SDS011;47645;45.288;12.038;2023-03-15T02:22:05;9.7;;;5.6;;
61739;SDS011;47645;45.288;12.038;2023-03-15T02:32:03;10.7;;;6.5;;
61739;SDS011;47645;45.288;12.038;2023-03-15T02:42:03;10.7;;;6.3;;
61739;SDS011;47645;45.288;12.038;2023-03-15T02:52:04;11.7;;;6.3;;
61739;SDS011;47645;45.288;12.038;2023-03-15T03:02:04;7.9;;;4.8;;
61739;SDS011;47645;45.288;12.038;2023-03-15T03:12:05;6.5;;;4.1;;
61739;SDS011;47645;45.288;12.038;2023-03-15T03:22:06;12.1;;;7.4;;
61739;SDS011;47645;45.288;12.038;2023-03-15T03:32:07;11.4;;;7.4;;
61739;SDS011;47645;45.288;12.038;2023-03-15T03:42:07;13.2;;;7.8;;
61739;SDS011;47645;45.288;12.038;2023-03-15T03:52:08;13.7;;;8.1;;
61739;SDS011;47645;45.288;12.038;2023-03-15T04:02:08;12.1;;;8.0;;
61739;SDS011;47645;45.288;12.038;2023-03-15T04:12:09;5.1;;;3.7;;
61739;SDS011;47645;45.288;12.038;2023-03-15T04:22:09;7.2;;;5.7;;
61739;SDS011;47645;45.288;12.038;2023-03-15T04:32:10;8.2;;;5.7;;
61739;SDS011;47645;45.288;12.038;2023-03-15T04:42:11;10.5;;;5.8;;
61739;SDS011;47645;45.288;12.038;2023-03-15T04:52:11;5.3;;;3.4;;
61739;SDS011;47645;45.288;12.038;2023-03-15T05:02:12;5.9;;;4.3;;
61739;SDS011;47645;45.288;12.038;2023-03-15T05:12:12;5.1;;;3.4;;
61739;SDS011;47645;45.288;12.038;2023-03-15T05:22:13;5.0;;;3.2;;
61739;SDS011;47645;45.288;12.038;2023-03-15T05:32:14;5.0;;;2.6;;
61739;SDS011;47645;45.288;12.038;2023-03-15T05:42:14;4.1;;;3.0;;
61739;SDS011;47645;45.288;12.038;2023-03-15T05:52:15;5.6;;;3.3;;
61739;SDS011;47645;45.288;12.038;2023-03-15T06:02:16;5.8;;;3.8;;
61739;SDS011;47645;45.288;12.038;2023-03-15T06:12:16;14.9;;;5.6;;
61739;SDS011;47645;45.288;12.038;2023-03-15T06:22:19;8.0;;;5.1;;
61739;SDS011;47645;45.288;12.038;2023-03-15T06:32:17;11.8;;;7.1;;
61739;SDS011;47645;45.288;12.038;2023-03-15T06:42:20;17.2;;;9.6;;
61739;SDS011;47645;45.288;12.038;2023-03-15T06:52:19;17.8;;;10.2;;
61739;SDS011;47645;45.288;12.038;2023-03-15T07:02:20;22.1;;;13.0;;
61739;SDS011;47645;45.288;12.038;2023-03-15T07:12:20;18.4;;;12.9;;
61739;SDS011;47645;45.288;12.038;2023-03-15T07:22:21;22.5;;;15.2;;
61739;SDS011;47645;45.288;12.038;2023-03-15T07:32:21;16.3;;;11.7;;
61739;SDS011;47645;45.288;12.038;2023-03-15T07:42:22;19.1;;;10.5;;
61739;SDS011;47645;45.288;12.038;2023-03-15T07:52:22;9.7;;;6.6;;
61739;SDS011;47645;45.288;12.038;2023-03-15T08:02:23;2.9;;;1.6;;
61739;SDS011;47645;45.288;12.038;2023-03-15T08:12:24;4.7;;;1.6;;
61739;SDS011;47645;45.288;12.038;2023-03-15T08:22:24;5.3;;;1.5;;
61739;SDS011;47645;45.288;12.038;2023-03-15T08:32:25;2.8;;;1.3;;
61739;SDS011;47645;45.288;12.038;2023-03-15T08:42:26;3.5;;;0.6;;
61739;SDS011;47645;45.288;12.038;2023-03-15T08:52:27;2.6;;;0.7;;
61739;SDS011;47645;45.288;12.038;2023-03-15T09:02:28;3.4;;;0.8;;
61739;SDS011;47645;45.288;12.038;2023-03-15T09:12:28;2.4;;;0.4;;
61739;SDS011;47645;45.288;12.038;2023-03-15T09:22:29;5.2;;;1.5;;
61739;SDS011;47645;45.288;12.038;2023-03-15T09:32:35;1.7;;;0.5;;
61739;SDS011;47645;45.288;12.038;2023-03-15T09:42:33;2.8;;;0.7;;
61739;SDS011;47645;45.288;12.038;2023-03-15T09:52:32;1.7;;;0.4;;
61739;SDS011;47645;45.288;12.038;2023-03-15T10:02:31;1.5;;;0.5;;
61739;SDS011;47645;45.288;12.038;2023-03-15T10:12:33;1.3;;;0.5;;
61739;SDS011;47645;45.288;12.038;2023-03-15T10:22:33;1.9;;;0.5;;
61739;SDS011;47645;45.288;12.038;2023-03-15T10:32:36;3.6;;;1.0;;
61739;SDS011;47645;45.288;12.038;2023-03-15T10:42:34;1.8;;;0.6;;
61739;SDS011;47645;45.288;12.038;2023-03-15T10:52:36;2.8;;;0.9;;
61739;SDS011;47645;45.288;12.038;2023-03-15T11:02:35;1.6;;;0.9;;
61739;SDS011;47645;45.288;12.038;2023-03-15T11:12:35;2.2;;;0.8;;
61739;SDS011;47645;45.288;12.038;2023-03-15T11:22:36;2.1;;;0.7;;
61739;SDS011;47645;45.288;12.038;2023-03-15T11:32:37;1.7;;;0.5;;
61739;SDS011;47645;45.288;12.038;2023-03-15T11:42:38;1.8;;;0.7;;
61739;SDS011;47645;45.288;12.038;2023-03-15T11:52:39;1.6;;;0.8;;
61739;SDS011;47645;45.288;12.038;2023-03-15T12:02:46;1.4;;;0.6;;
61739;SDS011;47645;45.288;12.038;2023-03-15T12:12:43;1.2;;;0.4;;
61739;SDS011;47645;45.288;12.038;2023-03-15T12:22:41;1.1;;;0.4;;
61739;SDS011;47645;45.288;12.038;2023-03-15T12:32:42;1.4;;;0.4;;
61739;SDS011;47645;45.288;12.038;2023-03-15T12:43:14;2.1;;;0.5;;
61739;SDS011;47645;45.288;12.038;2023-03-15T12:52:44;1.1;;;0.4;;
61739;SDS011;47645;45.288;12.038;2023-03-15T13:02:45;1.3;;;0.4;;
61739;SDS011;47645;45.288;12.038;2023-03-15T13:12:46;1.0;;;0.5;;
61739;SDS011;47645;45.288;12.038;2023-03-15T13:22:48;1.4;;;0.4;;
61739;SDS011;47645;45.288;12.038;2023-03-15T13:32:47;0.8;;;0.3;;
61739;SDS011;47645;45.288;12.038;2023-03-15T13:42:47;1.0;;;0.4;;
61739;SDS011;47645;45.288;12.038;2023-03-15T13:52:48;0.8;;;0.2;;
61739;SDS011;47645;45.288;12.038;2023-03-15T14:02:50;1.0;;;0.5;;
61739;SDS011;47645;45.288;12.038;2023-03-15T14:12:51;0.7;;;0.3;;
61739;SDS011;47645;45.288;12.038;2023-03-15T14:22:51;1.4;;;0.4;;
61739;SDS011;47645;45.288;12.038;2023-03-15T14:32:53;2.1;;;0.5;;
61739;SDS011;47645;45.288;12.038;2023-03-15T14:42:53;1.7;;;0.6;;
61739;SDS011;47645;45.288;12.038;2023-03-15T14:52:55;1.7;;;0.7;;
61739;SDS011;47645;45.288;12.038;2023-03-15T15:02:55;1.5;;;0.5;;
61739;SDS011;47645;45.288;12.038;2023-03-15T15:12:56;1.0;;;0.5;;
61739;SDS011;47645;45.288;12.038;2023-03-15T15:22:57;1.0;;;0.5;;
61739;SDS011;47645;45.288;12.038;2023-03-15T15:33:03;1.7;;;0.8;;
61739;SDS011;47645;45.288;12.038;2023-03-15T15:42:59;2.7;;;0.7;;
61739;SDS011;47645;45.288;12.038;2023-03-15T15:53:00;1.7;;;0.7;;
61739;SDS011;47645;45.288;12.038;2023-03-15T16:03:00;2.0;;;0.7;;
61739;SDS011;47645;45.288;12.038;2023-03-15T16:13:02;1.2;;;0.6;;
61739;SDS011;47645;45.288;12.038;2023-03-15T16:23:02;1.5;;;0.7;;
61739;SDS011;47645;45.288;12.038;2023-03-15T16:33:05;1.7;;;0.7;;
61739;SDS011;47645;45.288;12.038;2023-03-15T16:43:05;2.0;;;0.7;;
61739;SDS011;47645;45.288;12.038;2023-03-15T16:53:05;2.1;;;0.9;;
61739;SDS011;47645;45.288;12.038;2023-03-15T17:03:04;1.6;;;0.8;;
61739;SDS011;47645;45.288;12.038;2023-03-15T17:13:05;3.2;;;1.0;;
61739;SDS011;47645;45.288;12.038;2023-03-15T17:23:06;1.4;;;0.8;;
61739;SDS011;47645;45.288;12.038;2023-03-15T17:33:07;2.6;;;1.4;;
61739;SDS011;47645;45.288;12.038;2023-03-15T17:43:10;4.6;;;2.2;;
61739;SDS011;47645;45.288;12.038;2023-03-15T17:53:10;7.6;;;2.3;;
61739;SDS011;47645;45.288;12.038;2023-03-15T18:03:09;4.6;;;2.8;;
61739;SDS011;47645;45.288;12.038;2023-03-15T18:13:10;3.3;;;2.3;;
61739;SDS011;47645;45.288;12.038;2023-03-15T18:23:10;5.5;;;3.1;;
61739;SDS011;47645;45.288;12.038;2023-03-15T18:33:13;6.6;;;4.3;;
61739;SDS011;47645;45.288;12.038;2023-03-15T18:43:11;6.5;;;4.1;;
61739;SDS011;47645;45.288;12.038;2023-03-15T18:53:12;7.1;;;4.4;;
61739;SDS011;47645;45.288;12.038;2023-03-15T19:03:13;6.2;;;3.4;;
61739;SDS011;47645;45.288;12.038;2023-03-15T19:13:13;6.8;;;4.3;;
61739;SDS011;47645;45.288;12.038;2023-03-15T19:23:22;6.7;;;4.8;;
61739;SDS011;47645;45.288;12.038;2023-03-15T19:33:14;9.5;;;5.2;;
61739;SDS011;47645;45.288;12.038;2023-03-15T19:43:17;8.6;;;4.7;;
61739;SDS011;47645;45.288;12.038;2023-03-15T19:53:16;8.7;;;4.6;;
61739;SDS011;47645;45.288;12.038;2023-03-15T20:03:16;8.6;;;3.8;;
61739;SDS011;47645;45.288;12.038;2023-03-15T20:13:17;7.5;;;4.3;;
61739;SDS011;47645;45.288;12.038;2023-03-15T20:23:18;5.8;;;3.6;;
61739;SDS011;47645;45.288;12.038;2023-03-15T20:33:18;8.5;;;5.6;;
61739;SDS011;47645;45.288;12.038;2023-03-15T20:43:19;10.0;;;6.4;;
61739;SDS011;47645;45.288;12.038;2023-03-15T20:53:19;12.4;;;6.9;;
61739;SDS011;47645;45.288;12.038;2023-03-15T21:03:20;9.2;;;5.3;;
61739;SDS011;47645;45.288;12.038;2023-03-15T21:13:21;7.4;;;4.3;;
61739;SDS011;47645;45.288;12.038;2023-03-15T21:23:21;6.4;;;4.2;;
61739;SDS011;47645;45.288;12.038;2023-03-15T21:33:24;9.1;;;5.2;;
61739;SDS011;47645;45.288;12.038;2023-03-15T21:43:22;9.1;;;6.6;;
61739;SDS011;47645;45.288;12.038;2023-03-15T21:53:23;9.9;;;6.4;;
61739;SDS011;47645;45.288;12.038;2023-03-15T22:03:24;7.9;;;4.6;;
61739;SDS011;47645;45.288;12.038;2023-03-15T22:13:25;8.8;;;5.0;;
61739;SDS011;47645;45.288;12.038;2023-03-15T22:23:25;8.7;;;5.1;;
61739;SDS011;47645;45.288;12.038;2023-03-15T22:33:25;7.9;;;4.5;;
61739;SDS011;47645;45.288;12.038;2023-03-15T22:43:25;10.5;;;4.2;;
61739;SDS011;47645;45.288;12.038;2023-03-15T22:53:26;11.3;;;4.5;;
61739;SDS011;47645;45.288;12.038;2023-03-15T23:03:26;7.0;;;4.3;;
61739;SDS011;47645;45.288;12.038;2023-03-15T23:13:26;9.7;;;5.1;;
61739;SDS011;47645;45.288;12.038;2023-03-15T23:23:27;8.1;;;5.1;;
61739;SDS011;47645;45.288;12.038;2023-03-15T23:33:28;8.2;;;4.5;;
61739;SDS011;47645;45.288;12.038;2023-03-15T23:43:28;6.5;;;4.1;;
61739;SDS011;47645;45.288;12.038;2023-03-15T23:53:29;6.4;;;3.2;;
